sensor_id;sensor_type;location;lat;lon;timestamp;temperature;humidity
32366;DHT22;18837;46.832;16.838;2023-12-14T00:01:40;6.10;99.90
32366;DHT22;18837;46.832;16.838;2023-12-14T00:04:07;6.10;99.90
32366;DHT22;18837;46.832;16.838;2023-12-14T00:06:33;6.10;99.90
32366;DHT22;18837;46.832;16.838;2023-12-14T00:08:59;6.10;99.90
32366;DHT22;18837;46.832;16.838;2023-12-14T00:11:24;6.10;99.90
32366;DHT22;18837;46.832;16.838;2023-12-14T00:13:50;6.10;99.90
32366;DHT22;18837;46.832;16.838;2023-12-14T00:16:40;6.00;99.90
32366;DHT22;18837;46.832;16.838;2023-12-14T00:19:06;6.00;99.90
32366;DHT22;18837;46.832;16.838;2023-12-14T00:21:31;6.10;99.90
32366;DHT22;18837;46.832;16.838;2023-12-14T00:23:57;6.10;99.90
32366;DHT22;18837;46.832;16.838;2023-12-14T00:26:23;6.00;99.90
32366;DHT22;18837;46.832;16.838;2023-12-14T00:28:49;6.10;99.90
32366;DHT22;18837;46.832;16.838;2023-12-14T00:37:45;6.10;99.90
32366;DHT22;18837;46.832;16.838;2023-12-14T00:42:46;6.10;99.90
32366;DHT22;18837;46.832;16.838;2023-12-14T00:45:12;6.10;99.90
32366;DHT22;18837;46.832;16.838;2023-12-14T00:47:38;6.10;99.90
32366;DHT22;18837;46.832;16.838;2023-12-14T00:50:28;6.00;99.90
32366;DHT22;18837;46.832;16.838;2023-12-14T00:52:56;6.10;99.90
32366;DHT22;18837;46.832;16.838;2023-12-14T00:55:22;6.10;99.90
32366;DHT22;18837;46.832;16.838;2023-12-14T00:57:48;6.10;99.90
32366;DHT22;18837;46.832;16.838;2023-12-14T01:00:14;6.00;99.90
32366;DHT22;18837;46.832;16.838;2023-12-14T01:02:40;6.10;99.90
32366;DHT22;18837;46.832;16.838;2023-12-14T01:05:33;6.10;99.90
32366;DHT22;18837;46.832;16.838;2023-12-14T01:11:42;6.10;99.90
32366;DHT22;18837;46.832;16.838;2023-12-14T01:14:07;6.10;99.90
32366;DHT22;18837;46.832;16.838;2023-12-14T01:16:33;6.00;99.90
32366;DHT22;18837;46.832;16.838;2023-12-14T01:18:59;6.00;99.90
32366;DHT22;18837;46.832;16.838;2023-12-14T01:21:24;5.60;99.90
32366;DHT22;18837;46.832;16.838;2023-12-14T01:23:50;6.10;99.90
32366;DHT22;18837;46.832;16.838;2023-12-14T01:26:36;6.10;99.90
32366;DHT22;18837;46.832;16.838;2023-12-14T01:29:02;6.10;99.90
32366;DHT22;18837;46.832;16.838;2023-12-14T01:31:27;6.10;99.90
32366;DHT22;18837;46.832;16.838;2023-12-14T01:33:53;6.10;99.90
32366;DHT22;18837;46.832;16.838;2023-12-14T01:36:22;6.10;99.90
32366;DHT22;18837;46.832;16.838;2023-12-14T01:38:48;6.10;99.90
32366;DHT22;18837;46.832;16.838;2023-12-14T01:44:27;6.10;99.90
32366;DHT22;18837;46.832;16.838;2023-12-14T01:46:52;6.10;99.90
32366;DHT22;18837;46.832;16.838;2023-12-14T01:49:18;6.00;99.90
32366;DHT22;18837;46.832;16.838;2023-12-14T01:51:44;6.10;99.90
32366;DHT22;18837;46.832;16.838;2023-12-14T01:54:09;6.10;99.90
32366;DHT22;18837;46.832;16.838;2023-12-14T01:56:35;6.10;99.90
32366;DHT22;18837;46.832;16.838;2023-12-14T01:59:23;6.10;99.90
32366;DHT22;18837;46.832;16.838;2023-12-14T02:01:53;6.10;99.90
32366;DHT22;18837;46.832;16.838;2023-12-14T02:04:22;6.10;99.90
32366;DHT22;18837;46.832;16.838;2023-12-14T02:06:49;6.10;99.90
32366;DHT22;18837;46.832;16.838;2023-12-14T02:09:14;6.10;99.90
32366;DHT22;18837;46.832;16.838;2023-12-14T02:11:40;6.10;99.90
32366;DHT22;18837;46.832;16.838;2023-12-14T02:14:08;6.10;99.90
32366;DHT22;18837;46.832;16.838;2023-12-14T02:20:15;6.10;99.90
32366;DHT22;18837;46.832;16.838;2023-12-14T02:22:51;6.10;99.90
32366;DHT22;18837;46.832;16.838;2023-12-14T02:27:53;6.10;99.90
32366;DHT22;18837;46.832;16.838;2023-12-14T02:30:19;6.10;99.90
32366;DHT22;18837;46.832;16.838;2023-12-14T02:32:45;6.00;99.90
32366;DHT22;18837;46.832;16.838;2023-12-14T02:35:30;6.00;99.90
32366;DHT22;18837;46.832;16.838;2023-12-14T02:37:56;6.10;99.90
32366;DHT22;18837;46.832;16.838;2023-12-14T02:40:22;6.00;99.90
32366;DHT22;18837;46.832;16.838;2023-12-14T02:42:48;6.10;99.90
32366;DHT22;18837;46.832;16.838;2023-12-14T02:45:14;6.10;99.90
32366;DHT22;18837;46.832;16.838;2023-12-14T02:47:40;6.10;99.90
32366;DHT22;18837;46.832;16.838;2023-12-14T02:53:53;6.10;99.90
32366;DHT22;18837;46.832;16.838;2023-12-14T02:56:23;6.00;99.90
32366;DHT22;18837;46.832;16.838;2023-12-14T02:58:49;6.10;99.90
32366;DHT22;18837;46.832;16.838;2023-12-14T03:01:19;6.10;99.90
32366;DHT22;18837;46.832;16.838;2023-12-14T03:03:46;6.00;99.90
32366;DHT22;18837;46.832;16.838;2023-12-14T03:06:18;6.00;99.90
32366;DHT22;18837;46.832;16.838;2023-12-14T03:09:05;6.10;99.90
32366;DHT22;18837;46.832;16.838;2023-12-14T03:11:31;6.10;99.90
32366;DHT22;18837;46.832;16.838;2023-12-14T03:13:57;6.00;99.90
32366;DHT22;18837;46.832;16.838;2023-12-14T03:16:23;6.10;99.90
32366;DHT22;18837;46.832;16.838;2023-12-14T03:18:48;6.10;99.90
32366;DHT22;18837;46.832;16.838;2023-12-14T03:21:19;6.10;99.90
32366;DHT22;18837;46.832;16.838;2023-12-14T03:30:27;6.10;99.90
32366;DHT22;18837;46.832;16.838;2023-12-14T03:32:54;6.10;99.90
32366;DHT22;18837;46.832;16.838;2023-12-14T03:35:20;6.10;99.90
32366;DHT22;18837;46.832;16.838;2023-12-14T03:37:46;6.10;99.90
32366;DHT22;18837;46.832;16.838;2023-12-14T03:40:12;6.10;99.90
32366;DHT22;18837;46.832;16.838;2023-12-14T03:42:59;6.00;99.90
32366;DHT22;18837;46.832;16.838;2023-12-14T03:45:25;6.10;99.90
32366;DHT22;18837;46.832;16.838;2023-12-14T03:47:51;6.10;99.90
32366;DHT22;18837;46.832;16.838;2023-12-14T03:50:16;6.10;99.90
32366;DHT22;18837;46.832;16.838;2023-12-14T03:52:42;6.10;99.90
32366;DHT22;18837;46.832;16.838;2023-12-14T03:55:09;6.10;99.90
32366;DHT22;18837;46.832;16.838;2023-12-14T03:57:59;6.10;99.90
32366;DHT22;18837;46.832;16.838;2023-12-14T04:04:03;6.10;99.90
32366;DHT22;18837;46.832;16.838;2023-12-14T04:06:28;6.10;99.90
32366;DHT22;18837;46.832;16.838;2023-12-14T04:08:54;6.10;99.90
32366;DHT22;18837;46.832;16.838;2023-12-14T04:11:20;6.10;99.90
32366;DHT22;18837;46.832;16.838;2023-12-14T04:13:46;6.10;99.90
32366;DHT22;18837;46.832;16.838;2023-12-14T04:16:11;6.10;99.90
32366;DHT22;18837;46.832;16.838;2023-12-14T04:18:52;6.10;99.90
32366;DHT22;18837;46.832;16.838;2023-12-14T04:21:18;6.10;99.90
32366;DHT22;18837;46.832;16.838;2023-12-14T04:23:44;6.10;99.90
32366;DHT22;18837;46.832;16.838;2023-12-14T04:26:11;6.10;99.90
32366;DHT22;18837;46.832;16.838;2023-12-14T04:28:36;6.10;99.90
32366;DHT22;18837;46.832;16.838;2023-12-14T04:31:02;6.10;99.90
32366;DHT22;18837;46.832;16.838;2023-12-14T04:37:15;6.10;99.90
32366;DHT22;18837;46.832;16.838;2023-12-14T04:39:40;6.10;99.90
32366;DHT22;18837;46.832;16.838;2023-12-14T04:42:06;6.10;99.90
32366;DHT22;18837;46.832;16.838;2023-12-14T04:44:32;6.10;99.90
32366;DHT22;18837;46.832;16.838;2023-12-14T04:46:58;6.10;99.90
32366;DHT22;18837;46.832;16.838;2023-12-14T04:49:24;6.10;99.90
32366;DHT22;18837;46.832;16.838;2023-12-14T04:52:12;6.10;99.90
32366;DHT22;18837;46.832;16.838;2023-12-14T04:54:38;6.10;99.90
32366;DHT22;18837;46.832;16.838;2023-12-14T04:57:05;6.10;99.90
32366;DHT22;18837;46.832;16.838;2023-12-14T04:59:31;6.10;99.90
32366;DHT22;18837;46.832;16.838;2023-12-14T05:01:57;6.10;99.90
32366;DHT22;18837;46.832;16.838;2023-12-14T05:04:23;6.10;99.90
32366;DHT22;18837;46.832;16.838;2023-12-14T05:13:43;6.00;99.90
32366;DHT22;18837;46.832;16.838;2023-12-14T05:16:13;6.10;99.90
32366;DHT22;18837;46.832;16.838;2023-12-14T05:18:40;6.10;99.90
32366;DHT22;18837;46.832;16.838;2023-12-14T05:21:07;6.10;99.90
32366;DHT22;18837;46.832;16.838;2023-12-14T05:23:34;6.10;99.90
32366;DHT22;18837;46.832;16.838;2023-12-14T05:26:24;6.10;99.90
32366;DHT22;18837;46.832;16.838;2023-12-14T05:28:49;6.20;99.90
32366;DHT22;18837;46.832;16.838;2023-12-14T05:31:19;6.10;99.90
32366;DHT22;18837;46.832;16.838;2023-12-14T05:33:45;5.70;99.90
32366;DHT22;18837;46.832;16.838;2023-12-14T05:36:11;6.10;99.90
32366;DHT22;18837;46.832;16.838;2023-12-14T05:38:41;6.10;99.90
32366;DHT22;18837;46.832;16.838;2023-12-14T05:41:31;6.10;99.90
32366;DHT22;18837;46.832;16.838;2023-12-14T05:47:40;6.10;99.90
32366;DHT22;18837;46.832;16.838;2023-12-14T05:50:07;6.10;99.90
32366;DHT22;18837;46.832;16.838;2023-12-14T05:52:36;6.10;99.90
32366;DHT22;18837;46.832;16.838;2023-12-14T05:55:02;6.10;99.90
32366;DHT22;18837;46.832;16.838;2023-12-14T05:57:28;6.10;99.90
32366;DHT22;18837;46.832;16.838;2023-12-14T05:59:54;6.10;99.90
32366;DHT22;18837;46.832;16.838;2023-12-14T06:02:38;6.10;99.90
32366;DHT22;18837;46.832;16.838;2023-12-14T06:05:05;6.10;99.90
32366;DHT22;18837;46.832;16.838;2023-12-14T06:07:31;6.10;99.90
32366;DHT22;18837;46.832;16.838;2023-12-14T06:09:57;6.10;99.90
32366;DHT22;18837;46.832;16.838;2023-12-14T06:12:23;6.10;99.90
32366;DHT22;18837;46.832;16.838;2023-12-14T06:14:49;6.10;99.90
32366;DHT22;18837;46.832;16.838;2023-12-14T06:20:57;6.10;99.90
32366;DHT22;18837;46.832;16.838;2023-12-14T06:23:23;6.10;99.90
32366;DHT22;18837;46.832;16.838;2023-12-14T06:25:50;6.10;99.90
32366;DHT22;18837;46.832;16.838;2023-12-14T06:28:16;6.10;99.90
32366;DHT22;18837;46.832;16.838;2023-12-14T06:30:42;6.10;99.90
32366;DHT22;18837;46.832;16.838;2023-12-14T06:33:07;6.10;99.90
32366;DHT22;18837;46.832;16.838;2023-12-14T06:35:52;6.10;99.90
32366;DHT22;18837;46.832;16.838;2023-12-14T06:38:18;6.10;99.90
32366;DHT22;18837;46.832;16.838;2023-12-14T06:40:44;6.10;99.90
32366;DHT22;18837;46.832;16.838;2023-12-14T06:43:11;6.10;99.90
32366;DHT22;18837;46.832;16.838;2023-12-14T06:45:37;6.10;99.90
32366;DHT22;18837;46.832;16.838;2023-12-14T06:48:04;6.10;99.90
32366;DHT22;18837;46.832;16.838;2023-12-14T06:50:45;6.10;99.90
32366;DHT22;18837;46.832;16.838;2023-12-14T06:56:30;6.10;99.90
32366;DHT22;18837;46.832;16.838;2023-12-14T06:58:56;6.10;99.90
32366;DHT22;18837;46.832;16.838;2023-12-14T07:01:22;6.10;99.90
32366;DHT22;18837;46.832;16.838;2023-12-14T07:03:48;6.10;99.90
32366;DHT22;18837;46.832;16.838;2023-12-14T07:06:15;6.10;99.90
32366;DHT22;18837;46.832;16.838;2023-12-14T07:08:41;6.10;99.90
32366;DHT22;18837;46.832;16.838;2023-12-14T07:11:13;6.10;99.90
32366;DHT22;18837;46.832;16.838;2023-12-14T07:13:39;6.20;99.90
32366;DHT22;18837;46.832;16.838;2023-12-14T07:16:10;6.20;99.90
32366;DHT22;18837;46.832;16.838;2023-12-14T07:18:38;6.10;99.90
32366;DHT22;18837;46.832;16.838;2023-12-14T07:21:05;6.20;99.90
32366;DHT22;18837;46.832;16.838;2023-12-14T07:23:31;6.20;99.90
32366;DHT22;18837;46.832;16.838;2023-12-14T07:29:31;6.20;99.90
32366;DHT22;18837;46.832;16.838;2023-12-14T07:31:57;6.20;99.90
32366;DHT22;18837;46.832;16.838;2023-12-14T07:34:23;6.20;99.90
32366;DHT22;18837;46.832;16.838;2023-12-14T07:36:50;6.20;99.90
32366;DHT22;18837;46.832;16.838;2023-12-14T07:39:16;6.20;99.90
32366;DHT22;18837;46.832;16.838;2023-12-14T07:41:42;6.20;99.90
32366;DHT22;18837;46.832;16.838;2023-12-14T07:47:25;6.20;99.90
32366;DHT22;18837;46.832;16.838;2023-12-14T07:49:50;6.20;99.90
32366;DHT22;18837;46.832;16.838;2023-12-14T07:52:16;6.20;99.90
32366;DHT22;18837;46.832;16.838;2023-12-14T07:54:42;6.20;99.90
32366;DHT22;18837;46.832;16.838;2023-12-14T07:57:07;6.20;99.90
32366;DHT22;18837;46.832;16.838;2023-12-14T07:59:52;6.20;99.90
32366;DHT22;18837;46.832;16.838;2023-12-14T08:02:30;6.20;99.90
32366;DHT22;18837;46.832;16.838;2023-12-14T08:05:14;6.20;99.90
32366;DHT22;18837;46.832;16.838;2023-12-14T08:07:40;6.20;99.90
32366;DHT22;18837;46.832;16.838;2023-12-14T08:10:07;6.20;99.90
32366;DHT22;18837;46.832;16.838;2023-12-14T08:12:32;6.20;99.90
32366;DHT22;18837;46.832;16.838;2023-12-14T08:14:58;6.20;99.90
32366;DHT22;18837;46.832;16.838;2023-12-14T08:17:24;6.20;99.90
32366;DHT22;18837;46.832;16.838;2023-12-14T08:20:09;6.20;99.90
32366;DHT22;18837;46.832;16.838;2023-12-14T08:22:37;6.30;99.90
32366;DHT22;18837;46.832;16.838;2023-12-14T08:25:02;6.20;99.90
32366;DHT22;18837;46.832;16.838;2023-12-14T08:27:29;6.30;99.90
32366;DHT22;18837;46.832;16.838;2023-12-14T08:29:55;6.30;99.90
32366;DHT22;18837;46.832;16.838;2023-12-14T08:32:20;6.30;99.90
32366;DHT22;18837;46.832;16.838;2023-12-14T08:35:14;6.30;99.90
32366;DHT22;18837;46.832;16.838;2023-12-14T08:40:53;6.30;99.90
32366;DHT22;18837;46.832;16.838;2023-12-14T08:43:18;6.30;99.90
32366;DHT22;18837;46.832;16.838;2023-12-14T08:45:44;6.30;99.90
32366;DHT22;18837;46.832;16.838;2023-12-14T08:48:10;6.30;99.90
32366;DHT22;18837;46.832;16.838;2023-12-14T08:50:36;6.30;99.90
32366;DHT22;18837;46.832;16.838;2023-12-14T08:53:01;6.30;99.90
32366;DHT22;18837;46.832;16.838;2023-12-14T08:55:39;6.30;99.90
32366;DHT22;18837;46.832;16.838;2023-12-14T08:58:05;6.30;99.90
32366;DHT22;18837;46.832;16.838;2023-12-14T09:00:31;6.40;99.90
32366;DHT22;18837;46.832;16.838;2023-12-14T09:02:57;6.40;99.90
32366;DHT22;18837;46.832;16.838;2023-12-14T09:05:23;6.40;99.90
32366;DHT22;18837;46.832;16.838;2023-12-14T09:07:49;6.40;99.90
32366;DHT22;18837;46.832;16.838;2023-12-14T09:10:38;6.30;99.90
32366;DHT22;18837;46.832;16.838;2023-12-14T09:13:30;6.30;99.90
32366;DHT22;18837;46.832;16.838;2023-12-14T09:15:56;6.40;99.90
32366;DHT22;18837;46.832;16.838;2023-12-14T09:18:21;6.40;99.90
32366;DHT22;18837;46.832;16.838;2023-12-14T09:20:48;6.40;99.90
32366;DHT22;18837;46.832;16.838;2023-12-14T09:23:15;6.40;99.90
32366;DHT22;18837;46.832;16.838;2023-12-14T09:25:42;6.40;99.90
32366;DHT22;18837;46.832;16.838;2023-12-14T09:28:26;6.40;99.90
32366;DHT22;18837;46.832;16.838;2023-12-14T09:30:52;6.50;99.90
32366;DHT22;18837;46.832;16.838;2023-12-14T09:33:17;6.40;99.90
32366;DHT22;18837;46.832;16.838;2023-12-14T09:35:43;6.50;99.90
32366;DHT22;18837;46.832;16.838;2023-12-14T09:38:12;6.50;99.90
32366;DHT22;18837;46.832;16.838;2023-12-14T09:40:40;6.50;99.90
32366;DHT22;18837;46.832;16.838;2023-12-14T09:43:05;6.60;99.90
32366;DHT22;18837;46.832;16.838;2023-12-14T09:48:55;6.60;99.90
32366;DHT22;18837;46.832;16.838;2023-12-14T09:51:23;6.70;99.90
32366;DHT22;18837;46.832;16.838;2023-12-14T09:53:49;6.70;99.90
32366;DHT22;18837;46.832;16.838;2023-12-14T09:56:18;6.70;99.90
32366;DHT22;18837;46.832;16.838;2023-12-14T09:58:44;6.70;99.90
32366;DHT22;18837;46.832;16.838;2023-12-14T10:01:26;7.20;99.90
32366;DHT22;18837;46.832;16.838;2023-12-14T10:04:14;6.70;99.90
32366;DHT22;18837;46.832;16.838;2023-12-14T10:06:44;6.80;99.90
32366;DHT22;18837;46.832;16.838;2023-12-14T10:09:10;6.80;99.90
32366;DHT22;18837;46.832;16.838;2023-12-14T10:11:42;6.80;99.90
32366;DHT22;18837;46.832;16.838;2023-12-14T10:14:22;6.80;99.90
32366;DHT22;18837;46.832;16.838;2023-12-14T10:16:50;6.80;99.90
32366;DHT22;18837;46.832;16.838;2023-12-14T10:22:49;6.90;99.90
32366;DHT22;18837;46.832;16.838;2023-12-14T10:25:28;6.90;99.90
32366;DHT22;18837;46.832;16.838;2023-12-14T10:33:37;7.00;99.90
32366;DHT22;18837;46.832;16.838;2023-12-14T10:36:03;7.00;99.90
32366;DHT22;18837;46.832;16.838;2023-12-14T10:38:48;7.00;99.90
32366;DHT22;18837;46.832;16.838;2023-12-14T10:41:14;7.00;99.90
32366;DHT22;18837;46.832;16.838;2023-12-14T10:43:41;7.00;99.90
32366;DHT22;18837;46.832;16.838;2023-12-14T10:46:09;7.00;99.90
32366;DHT22;18837;46.832;16.838;2023-12-14T10:48:36;7.10;99.90
32366;DHT22;18837;46.832;16.838;2023-12-14T10:51:15;7.10;99.90
32366;DHT22;18837;46.832;16.838;2023-12-14T10:57:34;7.80;99.90
32366;DHT22;18837;46.832;16.838;2023-12-14T11:00:03;7.10;99.90
32366;DHT22;18837;46.832;16.838;2023-12-14T11:02:34;7.10;99.90
32366;DHT22;18837;46.832;16.838;2023-12-14T11:05:03;7.10;99.90
32366;DHT22;18837;46.832;16.838;2023-12-14T11:08:01;7.10;99.90
32366;DHT22;18837;46.832;16.838;2023-12-14T11:11:05;7.10;99.90
32366;DHT22;18837;46.832;16.838;2023-12-14T12:09:54;7.40;99.90
32366;DHT22;18837;46.832;16.838;2023-12-14T13:31:27;7.70;99.90
32366;DHT22;18837;46.832;16.838;2023-12-14T13:34:02;7.70;99.90
32366;DHT22;18837;46.832;16.838;2023-12-14T14:35:34;7.40;99.90
32366;DHT22;18837;46.832;16.838;2023-12-14T14:38:21;7.40;99.90
32366;DHT22;18837;46.832;16.838;2023-12-14T14:40:49;7.40;99.90
32366;DHT22;18837;46.832;16.838;2023-12-14T14:48:29;7.30;99.90
32366;DHT22;18837;46.832;16.838;2023-12-14T14:51:00;7.30;99.90
32366;DHT22;18837;46.832;16.838;2023-12-14T14:53:45;7.30;99.90
32366;DHT22;18837;46.832;16.838;2023-12-14T14:56:50;7.30;99.90
32366;DHT22;18837;46.832;16.838;2023-12-14T14:59:33;7.30;99.90
32366;DHT22;18837;46.832;16.838;2023-12-14T15:17:47;7.00;99.90
32366;DHT22;18837;46.832;16.838;2023-12-14T15:20:19;7.00;99.90
32366;DHT22;18837;46.832;16.838;2023-12-14T16:20:23;6.90;99.90
32366;DHT22;18837;46.832;16.838;2023-12-14T16:23:15;6.80;99.90
32366;DHT22;18837;46.832;16.838;2023-12-14T16:25:42;6.80;99.90
32366;DHT22;18837;46.832;16.838;2023-12-14T16:28:16;6.90;99.90
32366;DHT22;18837;46.832;16.838;2023-12-14T16:44:29;6.80;99.90
32366;DHT22;18837;46.832;16.838;2023-12-14T16:46:55;6.80;99.90
32366;DHT22;18837;46.832;16.838;2023-12-14T16:49:21;6.80;99.90
